createdAt,value
2018-07-28T00:01:05.620Z,5.80
2018-07-28T00:03:34.501Z,4.73
2018-07-28T00:06:03.388Z,4.50
2018-07-28T00:08:32.283Z,5.20
2018-07-28T00:11:01.180Z,5.10
2018-07-28T00:13:30.017Z,5.33
2018-07-28T00:15:58.891Z,5.90
2018-07-28T00:18:27.755Z,5.57
2018-07-28T00:20:56.605Z,5.80
2018-07-28T00:23:25.729Z,5.70
2018-07-28T00:26:00.157Z,5.33
2018-07-28T00:28:29.300Z,5.73
2018-07-28T00:30:58.320Z,5.63
2018-07-28T00:33:27.190Z,5.00
2018-07-28T00:35:56.035Z,5.33
2018-07-28T00:38:24.859Z,5.63
2018-07-28T00:40:53.676Z,5.20
2018-07-28T00:43:22.540Z,5.47
2018-07-28T00:45:51.431Z,5.37
2018-07-28T00:48:20.283Z,5.70
2018-07-28T00:50:49.149Z,5.17
2018-07-28T00:53:17.990Z,5.80
2018-07-28T00:55:46.864Z,6.37
2018-07-28T00:58:15.756Z,5.87
2018-07-28T01:00:44.571Z,5.67
2018-07-28T01:03:13.501Z,5.35
2018-07-28T01:05:42.989Z,5.30
2018-07-28T01:08:12.162Z,5.57
2018-07-28T01:10:40.989Z,5.40
2018-07-28T01:13:10.019Z,5.30
2018-07-28T01:15:38.864Z,6.00
2018-07-28T01:18:07.709Z,5.63
2018-07-28T01:20:36.563Z,5.27
2018-07-28T01:23:05.416Z,6.07
2018-07-28T01:25:34.365Z,5.80
2018-07-28T01:28:03.233Z,6.20
2018-07-28T01:30:32.715Z,5.73
2018-07-28T01:33:01.733Z,5.67
2018-07-28T01:35:30.610Z,4.97
2018-07-28T01:37:59.427Z,6.00
2018-07-28T01:40:28.253Z,5.73
2018-07-28T01:42:57.080Z,5.60
2018-07-28T01:45:25.920Z,6.03
2018-07-28T01:47:55.248Z,5.20
2018-07-28T01:50:24.100Z,5.93
2018-07-28T01:52:52.936Z,5.30
2018-07-28T01:55:21.816Z,5.60
2018-07-28T01:57:50.712Z,6.30
2018-07-28T02:00:19.580Z,5.60
2018-07-28T02:02:48.468Z,5.90
2018-07-28T02:05:17.320Z,5.37
2018-07-28T02:07:46.251Z,6.07
2018-07-28T02:10:15.122Z,5.58
2018-07-28T02:12:44.053Z,6.03
2018-07-28T02:15:12.897Z,5.67
2018-07-28T02:17:41.499Z,5.87
2018-07-28T02:20:10.288Z,6.40
2018-07-28T02:22:39.164Z,6.30
2018-07-28T02:25:09.339Z,6.47
2018-07-28T02:27:38.179Z,6.37
2018-07-28T02:30:07.438Z,6.17
2018-07-28T02:32:36.860Z,6.43
2018-07-28T02:35:06.717Z,5.77
2018-07-28T02:37:35.614Z,6.10
2018-07-28T02:40:05.924Z,5.23
2018-07-28T02:42:34.919Z,5.67
2018-07-28T02:45:04.877Z,5.93
2018-07-28T02:47:33.752Z,5.40
2018-07-28T02:50:02.609Z,5.97
2018-07-28T02:52:31.555Z,5.50
2018-07-28T02:55:00.452Z,5.27
2018-07-28T02:57:29.347Z,5.93
2018-07-28T02:59:58.243Z,4.87
2018-07-28T03:02:27.075Z,5.00
2018-07-28T03:04:56.219Z,5.53
2018-07-28T03:07:25.108Z,5.90
2018-07-28T03:09:53.965Z,5.17
2018-07-28T03:12:22.843Z,5.33
2018-07-28T03:14:51.751Z,5.03
2018-07-28T03:17:20.570Z,5.37
2018-07-28T03:19:49.397Z,5.13
2018-07-28T03:22:18.255Z,4.70
2018-07-28T03:24:47.084Z,4.57
2018-07-28T03:27:15.995Z,5.03
2018-07-28T03:29:44.877Z,5.00
2018-07-28T03:32:13.734Z,5.30
2018-07-28T03:34:42.786Z,5.10
2018-07-28T03:37:11.592Z,5.97
2018-07-28T03:39:40.431Z,4.50
2018-07-28T03:42:09.604Z,4.67
2018-07-28T03:44:38.552Z,4.80
2018-07-28T03:47:07.407Z,6.30
2018-07-28T03:49:36.392Z,5.93
2018-07-28T03:52:05.234Z,5.70
2018-07-28T03:54:34.081Z,5.67
2018-07-28T03:57:02.912Z,5.53
2018-07-28T03:59:31.735Z,6.10
2018-07-28T04:02:00.564Z,5.93
2018-07-28T04:04:29.395Z,6.00
2018-07-28T04:06:58.228Z,6.20
2018-07-28T04:09:29.137Z,6.40
2018-07-28T04:11:57.992Z,6.27
2018-07-28T04:14:27.090Z,6.07
2018-07-28T04:16:56.039Z,6.67
2018-07-28T04:19:24.931Z,5.83
2018-07-28T04:21:53.793Z,5.73
2018-07-28T04:24:23.043Z,5.13
2018-07-28T04:26:52.046Z,5.20
2018-07-28T04:29:21.824Z,5.20
2018-07-28T04:31:50.678Z,4.97
2018-07-28T04:34:19.336Z,5.27
2018-07-28T04:36:48.075Z,7.10
2018-07-28T04:39:16.939Z,5.27
2018-07-28T04:41:45.812Z,5.20
2018-07-28T04:44:14.658Z,5.07
2018-07-28T04:46:43.502Z,6.57
2018-07-28T04:49:12.341Z,4.93
2018-07-28T04:51:41.236Z,5.00
2018-07-28T04:54:10.087Z,5.17
2018-07-28T04:56:38.970Z,5.80
2018-07-28T04:59:08.548Z,6.30
2018-07-28T05:01:38.007Z,5.07
2018-07-28T05:04:07.416Z,5.20
2018-07-28T05:06:36.283Z,5.80
2018-07-28T05:09:07.963Z,4.90
2018-07-28T05:11:36.816Z,6.20
2018-07-28T05:14:05.627Z,5.90
2018-07-28T05:16:34.480Z,5.77
2018-07-28T05:19:03.291Z,5.93
2018-07-28T05:21:32.163Z,6.33
2018-07-28T05:24:01.003Z,6.27
2018-07-28T05:26:29.893Z,6.13
2018-07-28T05:28:59.300Z,4.93
2018-07-28T05:31:28.348Z,5.13
2018-07-28T05:33:57.702Z,5.57
2018-07-28T05:36:26.566Z,4.80
2018-07-28T05:38:55.444Z,4.80
2018-07-28T05:41:24.772Z,5.17
2018-07-28T05:43:53.607Z,5.30
2018-07-28T05:46:22.499Z,5.83
2018-07-28T05:48:51.373Z,4.70
2018-07-28T05:51:21.066Z,6.27
2018-07-28T05:53:50.348Z,4.80
2018-07-28T05:56:19.848Z,5.72
2018-07-28T05:58:48.367Z,5.80
2018-07-28T06:01:17.200Z,5.97
2018-07-28T06:03:46.037Z,6.30
2018-07-28T06:06:14.927Z,5.80
2018-07-28T06:08:43.786Z,5.20
2018-07-28T06:11:12.642Z,4.93
2018-07-28T06:13:43.292Z,5.67
2018-07-28T06:16:12.241Z,6.03
2018-07-28T06:18:41.109Z,5.20
2018-07-28T06:21:09.955Z,5.60
2018-07-28T06:23:38.777Z,4.93
2018-07-28T06:26:07.618Z,5.67
2018-07-28T06:28:36.450Z,5.30
2018-07-28T06:31:05.358Z,5.53
2018-07-28T06:33:34.268Z,5.03
2018-07-28T06:36:03.189Z,5.10
2018-07-28T06:38:32.121Z,4.73
2018-07-28T06:41:00.956Z,4.50
2018-07-28T06:43:29.845Z,5.20
2018-07-28T06:45:58.733Z,5.00
2018-07-28T06:48:27.815Z,5.50
2018-07-28T06:50:57.675Z,5.28
2018-07-28T06:53:27.947Z,5.57
2018-07-28T06:55:56.852Z,5.47
2018-07-28T06:58:25.935Z,5.10
2018-07-28T07:00:54.768Z,5.60
2018-07-28T07:03:23.612Z,5.43
2018-07-28T07:05:53.432Z,6.43
2018-07-28T07:08:22.260Z,5.42
2018-07-28T07:10:51.214Z,5.17
2018-07-28T07:13:20.215Z,4.97
2018-07-28T07:15:49.356Z,5.12
2018-07-28T07:18:18.802Z,4.87
2018-07-28T07:20:47.938Z,4.83
2018-07-28T07:23:16.849Z,4.97
2018-07-28T07:25:45.687Z,4.70
2018-07-28T07:28:14.536Z,4.30
2018-07-28T07:30:44.062Z,4.30
2018-07-28T07:33:13.068Z,4.67
2018-07-28T07:35:42.141Z,4.27
2018-07-28T07:38:11.025Z,5.30
2018-07-28T07:40:41.202Z,4.57
2018-07-28T07:43:10.206Z,5.00
2018-07-28T07:45:39.435Z,5.13
2018-07-28T07:48:08.327Z,4.43
2018-07-28T07:50:37.209Z,4.83
2018-07-28T07:53:06.158Z,4.73
2018-07-28T07:55:35.055Z,4.80
2018-07-28T07:58:04.227Z,4.80
2018-07-28T08:00:33.136Z,4.43
2018-07-28T08:03:02.077Z,4.83
2018-07-28T08:05:30.995Z,4.70
2018-07-28T08:07:59.889Z,5.90
2018-07-28T08:10:28.863Z,4.90
2018-07-28T08:12:57.826Z,4.63
2018-07-28T08:15:26.826Z,4.83
2018-07-28T08:17:55.637Z,5.17
2018-07-28T08:20:24.535Z,4.77
2018-07-28T08:22:53.440Z,4.80
2018-07-28T08:25:22.409Z,4.93
2018-07-28T08:27:51.399Z,5.67
2018-07-28T08:30:20.401Z,4.93
2018-07-28T08:32:49.602Z,7.10
2018-07-28T08:35:18.491Z,4.83
2018-07-28T08:37:47.345Z,3.93
2018-07-28T08:40:16.984Z,3.97
2018-07-28T08:42:45.879Z,3.63
2018-07-28T08:45:14.943Z,4.03
2018-07-28T08:47:44.039Z,3.63
2018-07-28T08:50:13.033Z,3.57
2018-07-28T08:52:42.055Z,3.70
2018-07-28T08:55:12.766Z,3.23
2018-07-28T08:57:41.605Z,3.80
2018-07-28T09:00:10.448Z,3.07
2018-07-28T09:02:39.031Z,3.70
2018-07-28T09:05:07.870Z,2.90
2018-07-28T09:07:37.648Z,2.90
2018-07-28T09:10:06.669Z,3.70
2018-07-28T09:12:35.802Z,3.17
2018-07-28T09:15:06.329Z,2.87
2018-07-28T09:17:35.267Z,2.83
2018-07-28T09:20:04.996Z,3.67
2018-07-28T09:22:34.059Z,2.47
2018-07-28T09:25:05.289Z,3.03
2018-07-28T09:27:34.132Z,2.83
2018-07-28T09:30:03.108Z,3.43
2018-07-28T09:32:31.931Z,2.80
2018-07-28T09:35:00.772Z,3.00
2018-07-28T09:37:29.617Z,2.63
2018-07-28T09:39:58.455Z,2.70
2018-07-28T09:42:27.323Z,2.67
2018-07-28T09:44:56.183Z,2.30
2018-07-28T09:47:25.036Z,2.83
2018-07-28T09:49:53.862Z,2.40
2018-07-28T09:52:22.769Z,2.70
2018-07-28T09:54:51.659Z,2.47
2018-07-28T09:57:20.615Z,2.37
2018-07-28T09:59:49.481Z,2.30
2018-07-28T10:02:18.397Z,2.70
2018-07-28T10:04:47.351Z,2.20
2018-07-28T10:07:16.319Z,2.30
2018-07-28T10:09:45.212Z,2.40
2018-07-28T10:12:14.171Z,2.53
2018-07-28T10:14:43.161Z,2.30
2018-07-28T10:17:12.200Z,2.20
2018-07-28T10:19:41.136Z,3.00
2018-07-28T10:22:10.027Z,2.23
2018-07-28T10:24:38.959Z,2.17
2018-07-28T10:27:07.761Z,2.43
2018-07-28T10:29:36.599Z,2.20
2018-07-28T10:32:05.450Z,3.13
2018-07-28T10:34:34.313Z,2.67
2018-07-28T10:37:03.158Z,2.33
2018-07-28T10:39:32.003Z,2.40
2018-07-28T10:42:00.855Z,2.93
2018-07-28T10:44:29.670Z,2.80
2018-07-28T10:46:58.616Z,2.40
2018-07-28T10:49:27.443Z,3.17
2018-07-28T10:51:56.419Z,2.80
2018-07-28T10:54:25.649Z,2.30
2018-07-28T10:56:54.515Z,3.03
2018-07-28T10:59:23.570Z,2.77
2018-07-28T11:01:52.387Z,2.40
2018-07-28T11:04:21.452Z,2.50
2018-07-28T11:06:50.286Z,2.70
2018-07-28T11:09:19.165Z,2.67
2018-07-28T11:11:48.007Z,2.57
2018-07-28T11:14:16.856Z,2.97
2018-07-28T11:16:45.695Z,2.50
2018-07-28T11:19:14.539Z,2.67
2018-07-28T11:21:43.364Z,2.73
2018-07-28T11:24:12.250Z,2.60
2018-07-28T11:26:41.080Z,2.40
2018-07-28T11:29:09.886Z,2.80
2018-07-28T11:31:50.056Z,2.57
2018-07-28T11:34:30.457Z,2.75
2018-07-28T11:37:10.715Z,2.30
2018-07-28T11:39:50.923Z,2.50
2018-07-28T11:42:31.292Z,2.90
2018-07-28T11:45:09.971Z,2.90
2018-07-28T11:47:39.404Z,2.53
2018-07-28T11:50:08.613Z,2.53
2018-07-28T11:52:37.555Z,2.40
2018-07-28T11:55:06.503Z,2.40
2018-07-28T11:57:35.392Z,2.57
2018-07-28T12:00:05.296Z,2.55
2018-07-28T12:02:34.053Z,3.00
2018-07-28T12:05:02.876Z,2.97
2018-07-28T12:07:31.721Z,2.40
2018-07-28T12:10:00.592Z,2.43
2018-07-28T12:12:29.454Z,2.50
2018-07-28T12:14:58.279Z,2.57
2018-07-28T12:17:27.091Z,2.10
2018-07-28T12:19:55.948Z,2.60
2018-07-28T12:22:24.824Z,3.13
2018-07-28T12:24:53.724Z,2.67
2018-07-28T12:27:22.554Z,2.43
2018-07-28T12:29:51.453Z,3.00
2018-07-28T12:32:20.276Z,2.83
2018-07-28T12:34:49.198Z,2.47
2018-07-28T12:37:18.532Z,2.73
2018-07-28T12:39:47.984Z,2.43
2018-07-28T12:42:17.172Z,2.70
2018-07-28T12:44:46.077Z,2.47
2018-07-28T12:47:14.959Z,2.47
2018-07-28T12:49:43.808Z,2.90
2018-07-28T12:52:13.016Z,3.10
2018-07-28T12:54:42.471Z,2.40
2018-07-28T12:57:12.165Z,2.17
2018-07-28T12:59:40.995Z,2.87
2018-07-28T13:02:09.837Z,2.70
2018-07-28T13:04:38.958Z,2.80
2018-07-28T13:07:07.815Z,3.00
2018-07-28T13:09:36.742Z,3.10
2018-07-28T13:12:05.394Z,2.23
2018-07-28T13:14:34.177Z,2.53
2018-07-28T13:17:03.163Z,2.90
2018-07-28T13:19:31.952Z,2.60
2018-07-28T13:22:00.780Z,2.67
2018-07-28T13:24:29.677Z,2.37
2018-07-28T13:26:58.497Z,2.73
2018-07-28T13:29:27.515Z,2.90
2018-07-28T13:31:56.345Z,4.03
2018-07-28T13:34:25.168Z,3.30
2018-07-28T13:36:54.464Z,3.20
2018-07-28T13:39:24.021Z,3.70
2018-07-28T13:41:53.520Z,3.17
2018-07-28T13:44:22.672Z,3.20
2018-07-28T13:46:51.879Z,2.97
2018-07-28T13:49:20.742Z,3.37
2018-07-28T13:51:49.640Z,6.90
2018-07-28T13:54:19.927Z,4.37
2018-07-28T13:56:48.741Z,3.20
2018-07-28T13:59:17.787Z,3.00
2018-07-28T14:01:46.604Z,2.90
2018-07-28T14:04:15.571Z,4.17
2018-07-28T14:06:44.396Z,3.40
2018-07-28T14:09:13.232Z,3.47
2018-07-28T14:11:42.055Z,2.80
2018-07-28T14:14:10.934Z,3.40
2018-07-28T14:16:39.892Z,3.07
2018-07-28T14:19:08.968Z,3.13
2018-07-28T14:21:38.225Z,2.80
2018-07-28T14:24:07.152Z,3.53
2018-07-28T14:26:36.231Z,2.60
2018-07-28T14:29:05.123Z,2.60
2018-07-28T14:31:34.005Z,2.60
2018-07-28T14:34:02.898Z,2.20
2018-07-28T14:36:31.783Z,1.67
2018-07-28T14:39:01.637Z,1.47
2018-07-28T14:41:30.680Z,1.87
2018-07-28T14:43:59.539Z,2.00
2018-07-28T14:46:28.979Z,1.77
2018-07-28T14:48:57.870Z,2.10
2018-07-28T14:51:27.001Z,1.80
2018-07-28T14:53:55.817Z,1.60
2018-07-28T14:56:24.680Z,1.70
2018-07-28T14:58:53.533Z,1.60
2018-07-28T15:01:22.394Z,1.90
2018-07-28T15:03:51.252Z,1.63
2018-07-28T15:06:20.139Z,1.90
2018-07-28T15:08:48.951Z,1.57
2018-07-28T15:11:17.768Z,2.20
2018-07-28T15:13:46.703Z,1.77
2018-07-28T15:16:15.597Z,1.63
2018-07-28T15:18:44.478Z,2.03
2018-07-28T15:21:13.399Z,1.90
2018-07-28T15:23:42.293Z,3.05
2018-07-28T15:26:11.530Z,1.80
2018-07-28T15:28:40.773Z,2.03
2018-07-28T15:31:09.632Z,2.03
2018-07-28T15:33:38.553Z,2.27
2018-07-28T15:36:08.716Z,2.10
2018-07-28T15:38:37.626Z,2.03
2018-07-28T15:41:06.532Z,2.53
2018-07-28T15:43:35.462Z,2.37
2018-07-28T15:46:05.387Z,2.70
2018-07-28T15:48:34.271Z,2.20
2018-07-28T15:51:03.601Z,2.07
2018-07-28T15:53:32.531Z,2.73
2018-07-28T15:56:02.259Z,2.47
2018-07-28T15:58:31.189Z,3.27
2018-07-28T16:01:00.072Z,2.40
2018-07-28T16:03:29.184Z,3.03
2018-07-28T16:05:58.692Z,2.10
2018-07-28T16:08:27.561Z,3.60
2018-07-28T16:10:56.372Z,2.30
2018-07-28T16:13:25.362Z,2.53
2018-07-28T16:15:54.301Z,2.40
2018-07-28T16:18:23.129Z,1.90
2018-07-28T16:20:52.971Z,2.40
2018-07-28T16:23:22.126Z,2.40
2018-07-28T16:25:51.251Z,2.60
2018-07-28T16:28:20.359Z,2.53
2018-07-28T16:30:49.201Z,2.40
2018-07-28T16:33:18.114Z,2.30
2018-07-28T16:35:47.007Z,2.70
2018-07-28T16:38:15.896Z,2.43
2018-07-28T16:40:44.657Z,2.63
2018-07-28T16:43:13.257Z,2.40
2018-07-28T16:45:41.973Z,2.57
2018-07-28T16:48:11.649Z,2.40
2018-07-28T16:50:40.725Z,2.17
2018-07-28T16:53:09.661Z,2.50
2018-07-28T16:55:39.394Z,2.40
2018-07-28T16:58:08.726Z,3.00
2018-07-28T17:00:37.648Z,2.67
2018-07-28T17:03:06.636Z,2.77
2018-07-28T17:05:35.491Z,3.17
2018-07-28T17:08:04.643Z,2.80
2018-07-28T17:10:33.493Z,2.83
2018-07-28T17:13:03.685Z,2.60
2018-07-28T17:15:32.526Z,2.77
2018-07-28T17:18:01.400Z,3.87
2018-07-28T17:20:30.221Z,4.57
2018-07-28T17:22:59.250Z,4.90
2018-07-28T17:25:28.132Z,5.23
2018-07-28T17:27:57.101Z,4.97
2018-07-28T17:30:26.464Z,4.73
2018-07-28T17:32:55.427Z,4.50
2018-07-28T17:35:24.727Z,3.30
2018-07-28T17:37:53.585Z,3.67
2018-07-28T17:40:23.344Z,2.95
2018-07-28T17:42:52.496Z,3.03
2018-07-28T17:45:21.544Z,3.23
2018-07-28T17:47:50.448Z,2.20
2018-07-28T17:50:19.276Z,3.67
2018-07-28T17:52:48.285Z,2.40
2018-07-28T17:55:17.130Z,2.00
2018-07-28T17:57:46.014Z,1.97
2018-07-28T18:00:16.062Z,2.10
2018-07-28T18:02:44.945Z,1.90
2018-07-28T18:05:16.884Z,1.60
2018-07-28T18:07:47.410Z,2.23
2018-07-28T18:10:16.290Z,2.20
2018-07-28T18:12:45.146Z,1.63
2018-07-28T18:15:14.323Z,1.43
2018-07-28T18:17:43.172Z,1.40
2018-07-28T18:20:12.032Z,1.10
2018-07-28T18:22:41.102Z,1.43
2018-07-28T18:25:09.969Z,1.10
2018-07-28T18:27:38.819Z,1.63
2018-07-28T18:30:07.663Z,1.97
2018-07-28T18:32:37.166Z,1.40
2018-07-28T18:35:06.579Z,1.10
2018-07-28T18:37:35.447Z,1.20
2018-07-28T18:40:04.451Z,1.50
2018-07-28T18:42:33.360Z,1.43
2018-07-28T18:45:02.203Z,1.60
2018-07-28T18:47:31.153Z,1.40
2018-07-28T18:50:00.048Z,1.30
2018-07-28T18:52:28.886Z,1.50
2018-07-28T18:54:57.883Z,1.90
2018-07-28T18:57:26.831Z,1.33
2018-07-28T18:59:57.774Z,1.57
2018-07-28T19:02:26.573Z,1.60
2018-07-28T19:04:55.441Z,1.00
2018-07-28T19:07:24.307Z,2.03
2018-07-28T19:09:53.958Z,1.30
2018-07-28T19:12:28.665Z,1.70
2018-07-28T19:14:57.717Z,1.30
2018-07-28T19:17:31.805Z,1.80
2018-07-28T19:20:00.303Z,1.20
2018-07-28T19:22:34.301Z,1.40
2018-07-28T19:25:02.833Z,1.20
2018-07-28T19:27:31.333Z,1.57
2018-07-28T19:30:00.085Z,1.60
2018-07-28T19:32:28.928Z,2.30
2018-07-28T19:34:57.787Z,1.63
2018-07-28T19:37:27.659Z,1.90
2018-07-28T19:39:56.597Z,1.33
2018-07-28T19:42:31.148Z,1.70
2018-07-28T19:44:59.651Z,1.67
2018-07-28T19:47:28.227Z,1.70
2018-07-28T19:49:57.096Z,1.50
2018-07-28T19:52:25.966Z,1.27
2018-07-28T19:54:55.105Z,1.93
2018-07-28T19:57:23.623Z,1.70
2018-07-28T19:59:52.122Z,1.70
2018-07-28T20:02:20.613Z,1.60
2018-07-28T20:04:49.128Z,2.07
2018-07-28T20:07:17.693Z,1.87
2018-07-28T20:09:46.254Z,1.83
2018-07-28T20:12:14.846Z,1.70
2018-07-28T20:14:43.352Z,1.50
2018-07-28T20:17:11.905Z,1.63
2018-07-28T20:19:40.434Z,1.30
2018-07-28T20:22:09.109Z,1.50
2018-07-28T20:24:37.688Z,1.40
2018-07-28T20:27:06.197Z,1.30
2018-07-28T20:29:34.851Z,1.70
2018-07-28T20:32:04.079Z,1.70
2018-07-28T20:34:32.574Z,1.83
2018-07-28T20:37:01.245Z,1.70
2018-07-28T20:39:29.888Z,1.63
2018-07-28T20:41:58.613Z,1.50
2018-07-28T20:44:27.181Z,1.53
2018-07-28T20:46:56.642Z,2.37
2018-07-28T20:49:25.444Z,1.90
2018-07-28T20:51:53.946Z,1.97
2018-07-28T20:54:22.461Z,1.93
2018-07-28T20:56:50.960Z,2.20
2018-07-28T20:59:19.519Z,2.20
2018-07-28T21:01:48.050Z,1.47
2018-07-28T21:04:16.638Z,1.70
2018-07-28T21:06:45.181Z,1.73
2018-07-28T21:09:13.757Z,1.77
2018-07-28T21:11:42.352Z,1.73
2018-07-28T21:14:10.924Z,1.43
2018-07-28T21:16:39.527Z,2.10
2018-07-28T21:19:08.054Z,1.30
2018-07-28T21:21:36.577Z,1.57
2018-07-28T21:24:05.428Z,1.20
2018-07-28T21:26:33.985Z,1.80
2018-07-28T21:29:02.614Z,1.37
2018-07-28T21:31:31.113Z,1.40
2018-07-28T21:33:59.882Z,1.70
2018-07-28T21:36:28.424Z,1.80
2018-07-28T21:38:56.996Z,1.37
2018-07-28T21:41:26.089Z,1.10
2018-07-28T21:43:54.677Z,1.90
2018-07-28T21:46:23.204Z,1.57
2018-07-28T21:48:51.753Z,1.63
2018-07-28T21:51:20.276Z,2.37
2018-07-28T21:53:48.907Z,1.63
2018-07-28T21:56:21.844Z,1.53
2018-07-28T21:58:50.466Z,1.60
2018-07-28T22:01:19.222Z,1.67
2018-07-28T22:03:47.765Z,1.30
2018-07-28T22:06:16.269Z,1.53
2018-07-28T22:08:44.820Z,1.27
2018-07-28T22:11:13.459Z,1.07
2018-07-28T22:13:42.008Z,1.50
2018-07-28T22:16:10.617Z,1.60
2018-07-28T22:18:39.101Z,1.50
2018-07-28T22:21:07.635Z,1.60
2018-07-28T22:23:36.418Z,2.03
2018-07-28T22:26:05.894Z,1.70
2018-07-28T22:28:34.607Z,2.10
2018-07-28T22:31:04.079Z,1.50
2018-07-28T22:33:32.574Z,1.30
2018-07-28T22:36:01.105Z,1.30
2018-07-28T22:38:29.674Z,1.60
2018-07-28T22:40:58.507Z,1.10
2018-07-28T22:43:27.028Z,1.43
2018-07-28T22:45:55.554Z,1.57
2018-07-28T22:48:24.610Z,1.33
2018-07-28T22:50:53.151Z,1.43
2018-07-28T22:53:21.674Z,1.30
2018-07-28T22:55:50.174Z,1.40
2018-07-28T22:58:18.706Z,1.40
2018-07-28T23:00:47.209Z,1.60
2018-07-28T23:03:15.938Z,1.30
2018-07-28T23:05:44.655Z,1.13
2018-07-28T23:08:13.189Z,1.10
2018-07-28T23:10:41.698Z,1.47
2018-07-28T23:13:10.363Z,1.30
2018-07-28T23:15:38.913Z,1.43
2018-07-28T23:18:07.541Z,1.27
2018-07-28T23:20:36.081Z,1.43
2018-07-28T23:23:04.634Z,1.20
2018-07-28T23:25:33.248Z,1.70
2018-07-28T23:28:01.753Z,1.63
2018-07-28T23:30:30.804Z,1.30
2018-07-28T23:32:59.341Z,1.50
2018-07-28T23:35:27.859Z,1.47
2018-07-28T23:37:56.399Z,1.77
2018-07-28T23:40:24.903Z,1.40
2018-07-28T23:42:53.490Z,1.50
2018-07-28T23:45:21.971Z,1.53
2018-07-28T23:47:50.495Z,1.47
2018-07-28T23:50:18.987Z,1.60
2018-07-28T23:52:47.508Z,1.63
2018-07-28T23:55:16.044Z,1.67
2018-07-28T23:57:45.342Z,1.33
